createdAt,value
2023-09-07T00:00:44.495Z,13.45
2023-09-07T00:03:42.911Z,13.44
2023-09-07T00:06:15.380Z,13.41
2023-09-07T00:08:47.570Z,13.40
2023-09-07T00:11:19.572Z,13.40
2023-09-07T00:13:52.207Z,13.38
2023-09-07T00:16:24.499Z,13.32
2023-09-07T00:18:56.683Z,13.21
2023-09-07T00:21:29.231Z,13.17
2023-09-07T00:24:05.630Z,13.19
2023-09-07T00:26:38.038Z,13.23
2023-09-07T00:29:10.029Z,13.19
2023-09-07T00:31:42.995Z,13.13
2023-09-07T00:34:15.318Z,13.22
2023-09-07T00:36:47.412Z,13.20
2023-09-07T00:39:19.471Z,13.14
2023-09-07T00:41:51.848Z,13.06
2023-09-07T00:44:24.026Z,13.02
2023-09-07T00:46:56.502Z,13.07
2023-09-07T00:49:29.356Z,13.11
2023-09-07T00:52:01.950Z,13.00
2023-09-07T00:54:35.648Z,12.93
2023-09-07T00:57:08.834Z,13.01
2023-09-07T00:59:40.903Z,12.92
2023-09-07T01:02:13.638Z,12.82
2023-09-07T01:04:46.531Z,12.77
2023-09-07T01:07:23.626Z,12.74
2023-09-07T01:10:01.924Z,12.78
2023-09-07T01:12:34.501Z,12.76
2023-09-07T01:15:08.018Z,12.80
2023-09-07T01:17:41.027Z,12.78
2023-09-07T01:20:19.517Z,12.80
2023-09-07T01:22:52.069Z,12.87
2023-09-07T01:25:25.590Z,12.88
2023-09-07T01:27:57.807Z,12.90
2023-09-07T01:30:31.130Z,12.94
2023-09-07T01:33:03.890Z,12.84
2023-09-07T01:35:38.277Z,12.75
2023-09-07T01:38:10.519Z,12.69
2023-09-07T01:40:42.740Z,12.72
2023-09-07T01:43:14.854Z,12.67
2023-09-07T01:45:46.967Z,12.65
2023-09-07T01:48:19.272Z,12.54
2023-09-07T01:50:54.013Z,12.51
2023-09-07T01:53:26.237Z,12.52
2023-09-07T01:56:00.652Z,12.61
2023-09-07T01:58:33.339Z,12.59
2023-09-07T02:01:05.719Z,12.44
2023-09-07T02:03:38.070Z,12.26
2023-09-07T02:06:10.428Z,12.16
2023-09-07T02:08:43.118Z,12.12
2023-09-07T02:11:15.272Z,12.09
2023-09-07T02:13:49.224Z,12.02
2023-09-07T02:16:21.688Z,12.07
2023-09-07T02:19:01.832Z,12.16
2023-09-07T02:21:33.899Z,12.24
2023-09-07T02:24:06.802Z,12.38
2023-09-07T02:26:44.988Z,12.54
2023-09-07T02:29:17.639Z,12.55
2023-09-07T02:31:49.886Z,12.43
2023-09-07T02:34:22.186Z,12.30
2023-09-07T02:36:54.393Z,12.06
2023-09-07T02:39:27.354Z,11.81
2023-09-07T02:41:59.792Z,11.78
2023-09-07T02:44:32.076Z,11.78
2023-09-07T02:47:04.607Z,11.81
2023-09-07T02:49:36.930Z,11.76
2023-09-07T02:52:09.501Z,11.86
2023-09-07T02:54:43.088Z,11.82
2023-09-07T02:57:15.116Z,11.81
2023-09-07T02:59:47.972Z,11.81
2023-09-07T03:02:20.104Z,11.84
2023-09-07T03:05:00.213Z,11.85
2023-09-07T03:07:35.286Z,11.88
2023-09-07T03:10:07.913Z,11.92
2023-09-07T03:12:40.221Z,11.96
2023-09-07T03:15:13.475Z,11.99
2023-09-07T03:17:46.161Z,12.06
2023-09-07T03:20:19.416Z,12.02
2023-09-07T03:22:54.489Z,11.93
2023-09-07T03:25:27.284Z,11.82
2023-09-07T03:27:59.817Z,11.82
2023-09-07T03:30:32.166Z,11.83
2023-09-07T03:33:04.923Z,11.64
2023-09-07T03:35:37.143Z,11.48
2023-09-07T03:38:10.031Z,11.41
2023-09-07T03:40:42.078Z,11.43
2023-09-07T03:43:14.583Z,11.46
2023-09-07T03:45:46.726Z,11.46
2023-09-07T03:48:18.879Z,11.36
2023-09-07T03:50:50.933Z,11.41
2023-09-07T03:53:22.997Z,11.46
2023-09-07T03:55:55.081Z,11.47
2023-09-07T03:58:27.218Z,11.48
2023-09-07T04:01:02.615Z,11.44
2023-09-07T04:03:35.237Z,11.39
2023-09-07T04:06:07.822Z,11.33
2023-09-07T04:08:40.144Z,11.43
2023-09-07T04:11:12.142Z,11.55
2023-09-07T04:13:44.159Z,11.61
2023-09-07T04:16:16.176Z,11.66
2023-09-07T04:18:48.318Z,11.56
2023-09-07T04:21:20.407Z,11.38
2023-09-07T04:23:52.696Z,11.29
2023-09-07T04:26:24.895Z,11.17
2023-09-07T04:28:56.975Z,11.06
2023-09-07T04:31:29.496Z,11.03
2023-09-07T04:34:03.863Z,11.12
2023-09-07T04:36:36.008Z,11.25
2023-09-07T04:39:08.866Z,11.42
2023-09-07T04:41:40.923Z,11.60
2023-09-07T04:44:13.071Z,11.72
2023-09-07T04:46:45.749Z,11.78
2023-09-07T04:49:17.975Z,11.66
2023-09-07T04:51:50.855Z,11.65
2023-09-07T04:54:22.960Z,11.68
2023-09-07T04:56:54.983Z,11.67
2023-09-07T04:59:27.464Z,11.82
2023-09-07T05:02:03.752Z,11.97
2023-09-07T05:04:36.448Z,11.86
2023-09-07T05:07:09.254Z,11.78
2023-09-07T05:09:41.967Z,11.85
2023-09-07T05:12:15.660Z,11.91
2023-09-07T05:14:48.038Z,11.87
2023-09-07T05:17:20.151Z,11.90
2023-09-07T05:19:52.295Z,11.97
2023-09-07T05:22:24.541Z,12.06
2023-09-07T05:24:56.730Z,12.17
2023-09-07T05:27:28.806Z,12.27
2023-09-07T05:30:00.932Z,12.48
2023-09-07T05:32:33.489Z,12.61
2023-09-07T05:35:07.023Z,12.73
2023-09-07T05:37:39.791Z,12.87
2023-09-07T05:40:13.747Z,13.02
2023-09-07T05:42:45.937Z,13.23
2023-09-07T05:45:18.377Z,13.42
2023-09-07T05:47:50.991Z,13.57
2023-09-07T05:50:23.503Z,13.72
2023-09-07T05:52:56.178Z,13.90
2023-09-07T05:55:28.536Z,14.04
2023-09-07T05:58:03.463Z,14.19
2023-09-07T06:00:40.343Z,14.33
2023-09-07T06:03:13.055Z,14.48
2023-09-07T06:05:45.824Z,14.63
2023-09-07T06:08:18.477Z,14.74
2023-09-07T06:10:50.846Z,14.87
2023-09-07T06:13:22.944Z,15.01
2023-09-07T06:15:55.688Z,15.14
2023-09-07T06:18:28.268Z,15.27
2023-09-07T06:21:00.643Z,15.43
2023-09-07T06:23:33.012Z,15.62
2023-09-07T06:26:05.491Z,15.81
2023-09-07T06:28:37.916Z,15.94
2023-09-07T06:31:10.238Z,16.10
2023-09-07T06:33:42.804Z,16.20
2023-09-07T06:36:14.938Z,16.33
2023-09-07T06:38:47.236Z,16.48
2023-09-07T06:41:19.701Z,16.69
2023-09-07T06:43:51.877Z,16.84
2023-09-07T06:46:24.815Z,16.99
2023-09-07T06:48:57.762Z,17.13
2023-09-07T06:51:30.461Z,17.29
2023-09-07T06:54:02.804Z,17.48
2023-09-07T06:56:35.943Z,17.55
2023-09-07T06:59:08.714Z,17.62
2023-09-07T07:01:41.230Z,17.74
2023-09-07T07:04:13.673Z,17.94
2023-09-07T07:06:46.492Z,18.14
2023-09-07T07:09:18.996Z,18.31
2023-09-07T07:11:51.339Z,18.48
2023-09-07T07:14:23.505Z,18.62
2023-09-07T07:16:56.093Z,18.88
2023-09-07T07:19:28.660Z,19.10
2023-09-07T07:22:01.345Z,19.28
2023-09-07T07:24:34.380Z,19.47
2023-09-07T07:27:07.224Z,19.76
2023-09-07T07:29:40.729Z,19.99
2023-09-07T07:32:13.315Z,20.16
2023-09-07T07:34:45.817Z,20.35
2023-09-07T07:37:18.128Z,20.55
2023-09-07T07:39:50.500Z,20.77
2023-09-07T07:42:24.195Z,20.96
2023-09-07T07:44:56.784Z,21.19
2023-09-07T07:47:29.147Z,21.43
2023-09-07T07:50:01.550Z,21.65
2023-09-07T07:52:34.244Z,21.70
2023-09-07T07:55:07.568Z,21.76
2023-09-07T07:57:39.748Z,21.95
2023-09-07T08:00:14.873Z,22.18
2023-09-07T08:02:50.777Z,22.37
2023-09-07T08:05:23.233Z,22.53
2023-09-07T08:07:55.747Z,22.73
2023-09-07T08:10:30.143Z,22.90
2023-09-07T08:13:05.164Z,23.04
2023-09-07T08:15:38.346Z,23.17
2023-09-07T08:18:11.637Z,23.28
2023-09-07T08:20:44.163Z,23.43
2023-09-07T08:23:16.505Z,23.57
2023-09-07T08:25:48.822Z,23.73
2023-09-07T08:28:23.437Z,23.86
2023-09-07T08:30:56.388Z,23.96
2023-09-07T08:33:30.702Z,24.07
2023-09-07T08:36:02.956Z,24.11
2023-09-07T08:38:35.233Z,24.25
2023-09-07T08:41:08.727Z,24.42
2023-09-07T08:43:48.590Z,24.64
2023-09-07T08:46:22.831Z,24.74
2023-09-07T08:48:59.489Z,24.84
2023-09-07T08:51:34.023Z,24.96
2023-09-07T08:54:06.594Z,25.11
2023-09-07T08:56:39.520Z,25.29
2023-09-07T08:59:12.116Z,25.44
2023-09-07T09:01:44.716Z,25.59
2023-09-07T09:04:17.818Z,25.70
2023-09-07T09:06:50.078Z,25.80
2023-09-07T09:09:28.445Z,25.86
2023-09-07T09:12:10.553Z,25.91
2023-09-07T09:14:44.020Z,25.91
2023-09-07T09:17:19.455Z,25.93
2023-09-07T09:19:51.724Z,26.01
2023-09-07T09:22:25.678Z,26.16
2023-09-07T09:24:57.930Z,26.30
2023-09-07T09:27:30.024Z,26.36
2023-09-07T09:30:02.241Z,26.40
2023-09-07T09:32:34.653Z,26.45
2023-09-07T09:35:07.896Z,26.56
2023-09-07T09:37:48.534Z,26.76
2023-09-07T09:40:21.311Z,26.93
2023-09-07T09:42:57.324Z,27.01
2023-09-07T09:45:31.215Z,27.14
2023-09-07T09:48:05.181Z,27.27
2023-09-07T09:50:39.254Z,27.27
2023-09-07T09:53:17.169Z,27.36
2023-09-07T09:55:50.299Z,27.55
2023-09-07T09:58:23.340Z,27.78
2023-09-07T10:00:59.991Z,27.89
2023-09-07T10:03:34.700Z,28.05
2023-09-07T10:06:13.748Z,28.21
2023-09-07T10:08:56.933Z,28.40
2023-09-07T10:11:34.291Z,28.63
2023-09-07T10:14:08.378Z,28.71
2023-09-07T10:16:48.688Z,28.71
2023-09-07T10:19:22.210Z,28.81
2023-09-07T10:21:56.590Z,29.01
2023-09-07T10:24:30.276Z,29.16
2023-09-07T10:27:04.496Z,29.29
2023-09-07T10:29:47.418Z,29.50
2023-09-07T10:32:20.561Z,29.83
2023-09-07T10:34:54.209Z,30.05
2023-09-07T10:37:32.945Z,30.09
2023-09-07T10:40:05.570Z,30.10
2023-09-07T10:42:37.989Z,30.06
2023-09-07T10:45:18.998Z,30.23
2023-09-07T10:47:51.788Z,30.30
2023-09-07T10:50:24.317Z,30.31
2023-09-07T10:52:57.930Z,30.57
2023-09-07T10:55:30.217Z,30.79
2023-09-07T10:58:02.883Z,31.01
2023-09-07T11:00:35.387Z,31.12
2023-09-07T11:03:16.263Z,31.31
2023-09-07T11:05:49.390Z,31.53
2023-09-07T11:08:21.970Z,31.84
2023-09-07T11:10:55.292Z,32.08
2023-09-07T11:13:28.625Z,32.23
2023-09-07T11:16:01.691Z,32.41
2023-09-07T11:18:37.335Z,32.64
2023-09-07T11:21:09.833Z,32.78
2023-09-07T11:23:42.260Z,32.96
2023-09-07T11:26:17.175Z,33.16
2023-09-07T11:28:50.611Z,33.19
2023-09-07T11:31:24.018Z,33.43
2023-09-07T11:33:57.734Z,33.45
2023-09-07T11:36:29.941Z,33.34
2023-09-07T11:39:02.209Z,33.19
2023-09-07T11:41:34.472Z,32.87
2023-09-07T11:44:06.892Z,32.74
2023-09-07T11:46:39.522Z,33.02
2023-09-07T11:49:11.757Z,33.52
2023-09-07T11:51:44.003Z,34.12
2023-09-07T11:54:16.230Z,34.23
2023-09-07T11:56:48.707Z,34.35
2023-09-07T11:59:20.767Z,34.44
2023-09-07T12:01:53.124Z,34.73
2023-09-07T12:04:25.377Z,35.01
2023-09-07T12:06:57.468Z,35.36
2023-09-07T12:09:29.545Z,35.65
2023-09-07T12:12:02.116Z,35.99
2023-09-07T12:14:35.183Z,35.75
2023-09-07T12:17:07.681Z,35.76
2023-09-07T12:19:43.089Z,36.26
2023-09-07T12:22:15.254Z,36.84
2023-09-07T12:24:49.830Z,36.95
2023-09-07T12:27:25.760Z,37.59
2023-09-07T12:29:58.402Z,38.15
2023-09-07T12:32:30.536Z,38.58
2023-09-07T12:35:03.308Z,38.90
2023-09-07T12:37:35.280Z,39.34
2023-09-07T12:40:12.786Z,39.97
2023-09-07T12:42:46.721Z,40.36
2023-09-07T12:45:18.923Z,40.42
2023-09-07T12:47:51.118Z,40.84
2023-09-07T12:50:24.635Z,40.94
2023-09-07T12:52:56.790Z,40.88
2023-09-07T12:55:31.015Z,40.48
2023-09-07T12:58:03.146Z,40.70
2023-09-07T13:00:35.879Z,41.36
2023-09-07T13:03:09.074Z,42.00
2023-09-07T13:05:41.852Z,42.30
2023-09-07T13:08:14.363Z,42.79
2023-09-07T13:10:46.485Z,42.46
2023-09-07T13:13:18.604Z,41.68
2023-09-07T13:15:50.741Z,40.83
2023-09-07T13:18:22.961Z,40.62
2023-09-07T13:21:00.775Z,41.64
2023-09-07T13:23:33.803Z,42.38
2023-09-07T13:26:06.034Z,42.15
2023-09-07T13:28:38.081Z,42.24
2023-09-07T13:31:10.474Z,42.85
2023-09-07T13:33:42.604Z,43.39
2023-09-07T13:36:14.675Z,43.49
2023-09-07T13:38:46.709Z,43.92
2023-09-07T13:41:18.707Z,44.48
2023-09-07T13:43:51.075Z,44.66
2023-09-07T13:46:24.810Z,44.46
2023-09-07T13:48:57.495Z,44.77
2023-09-07T13:51:33.016Z,45.05
2023-09-07T13:54:05.210Z,45.29
2023-09-07T13:56:38.565Z,45.42
2023-09-07T13:59:11.058Z,45.55
2023-09-07T14:01:43.247Z,45.64
2023-09-07T14:04:15.313Z,45.81
2023-09-07T14:06:48.225Z,45.07
2023-09-07T14:09:21.212Z,44.75
2023-09-07T14:11:53.224Z,44.48
2023-09-07T14:14:25.360Z,44.53
2023-09-07T14:16:59.699Z,44.60
2023-09-07T14:19:32.710Z,44.35
2023-09-07T14:22:04.857Z,44.75
2023-09-07T14:24:36.835Z,44.70
2023-09-07T14:27:10.164Z,44.69
2023-09-07T14:29:42.262Z,44.97
2023-09-07T14:32:14.482Z,45.30
2023-09-07T14:34:46.500Z,45.10
2023-09-07T14:37:18.839Z,45.29
2023-09-07T14:39:52.027Z,44.99
2023-09-07T14:42:24.026Z,44.99
2023-09-07T14:44:58.692Z,44.74
2023-09-07T14:47:31.100Z,44.39
2023-09-07T14:50:04.574Z,44.36
2023-09-07T14:52:41.965Z,44.46
2023-09-07T14:55:14.032Z,44.62
2023-09-07T14:57:46.367Z,44.86
2023-09-07T15:00:19.176Z,44.79
2023-09-07T15:02:51.336Z,44.73
2023-09-07T15:05:23.762Z,44.66
2023-09-07T15:07:55.957Z,44.71
2023-09-07T15:10:28.884Z,44.80
2023-09-07T15:13:00.984Z,44.56
2023-09-07T15:15:37.721Z,44.22
2023-09-07T15:18:10.729Z,43.99
2023-09-07T15:20:42.942Z,43.69
2023-09-07T15:23:15.028Z,43.51
2023-09-07T15:25:47.112Z,42.94
2023-09-07T15:28:21.523Z,41.47
2023-09-07T15:30:53.613Z,39.92
2023-09-07T15:33:26.091Z,38.49
2023-09-07T15:35:58.266Z,37.00
2023-09-07T15:38:31.400Z,35.93
2023-09-07T15:41:06.391Z,34.98
2023-09-07T15:43:38.492Z,34.12
2023-09-07T15:46:11.086Z,33.39
2023-09-07T15:48:43.213Z,32.83
2023-09-07T15:51:15.462Z,32.22
2023-09-07T15:53:47.550Z,31.67
2023-09-07T15:56:20.023Z,31.17
2023-09-07T15:58:52.065Z,30.63
2023-09-07T16:01:24.327Z,30.17
2023-09-07T16:03:56.519Z,29.82
2023-09-07T16:06:30.387Z,29.52
2023-09-07T16:09:02.756Z,29.20
2023-09-07T16:11:35.010Z,28.94
2023-09-07T16:14:07.904Z,28.66
2023-09-07T16:16:39.986Z,28.42
2023-09-07T16:19:12.076Z,28.21
2023-09-07T16:21:44.103Z,27.99
2023-09-07T16:24:17.288Z,27.76
2023-09-07T16:26:49.370Z,27.55
2023-09-07T16:29:21.434Z,27.36
2023-09-07T16:31:53.553Z,27.20
2023-09-07T16:34:28.091Z,26.99
2023-09-07T16:37:00.130Z,26.80
2023-09-07T16:39:32.208Z,26.62
2023-09-07T16:42:04.639Z,26.44
2023-09-07T16:44:36.802Z,26.28
2023-09-07T16:47:09.871Z,26.09
2023-09-07T16:49:41.998Z,25.90
2023-09-07T16:52:14.091Z,25.71
2023-09-07T16:54:46.152Z,25.56
2023-09-07T16:57:18.317Z,25.37
2023-09-07T16:59:57.285Z,25.22
2023-09-07T17:02:30.564Z,25.07
2023-09-07T17:05:04.136Z,24.88
2023-09-07T17:07:36.330Z,24.76
2023-09-07T17:10:10.256Z,24.60
2023-09-07T17:12:42.306Z,24.43
2023-09-07T17:15:15.435Z,24.23
2023-09-07T17:17:50.593Z,24.03
2023-09-07T17:20:23.066Z,23.93
2023-09-07T17:22:55.528Z,23.85
2023-09-07T17:25:27.565Z,23.73
2023-09-07T17:27:59.777Z,23.56
2023-09-07T17:30:35.591Z,23.41
2023-09-07T17:33:08.546Z,23.28
2023-09-07T17:35:40.835Z,23.13
2023-09-07T17:38:13.025Z,22.99
2023-09-07T17:40:45.238Z,22.85
2023-09-07T17:43:17.620Z,22.72
2023-09-07T17:45:49.768Z,22.60
2023-09-07T17:48:21.995Z,22.45
2023-09-07T17:50:54.233Z,22.24
2023-09-07T17:53:28.149Z,22.07
2023-09-07T17:56:00.283Z,21.90
2023-09-07T17:58:32.726Z,21.72
2023-09-07T18:01:05.758Z,21.53
2023-09-07T18:03:38.121Z,21.38
2023-09-07T18:06:10.825Z,21.27
2023-09-07T18:08:43.128Z,21.12
2023-09-07T18:11:15.372Z,20.92
2023-09-07T18:13:49.562Z,20.78
2023-09-07T18:16:24.995Z,20.66
2023-09-07T18:18:57.584Z,20.56
2023-09-07T18:21:30.400Z,20.44
2023-09-07T18:24:02.994Z,20.34
2023-09-07T18:26:35.188Z,20.22
2023-09-07T18:29:07.304Z,20.11
2023-09-07T18:31:40.643Z,19.99
2023-09-07T18:34:13.341Z,19.85
2023-09-07T18:36:45.594Z,19.71
2023-09-07T18:39:17.672Z,19.60
2023-09-07T18:41:49.889Z,19.43
2023-09-07T18:44:22.042Z,19.30
2023-09-07T18:46:54.846Z,19.17
2023-09-07T18:49:27.139Z,19.06
2023-09-07T18:51:59.313Z,18.97
2023-09-07T18:54:31.355Z,18.88
2023-09-07T18:57:03.529Z,18.78
2023-09-07T18:59:35.746Z,18.68
2023-09-07T19:02:08.005Z,18.57
2023-09-07T19:04:40.760Z,18.40
2023-09-07T19:07:15.584Z,18.29
2023-09-07T19:09:47.892Z,18.21
2023-09-07T19:12:20.235Z,18.17
2023-09-07T19:14:52.719Z,18.11
2023-09-07T19:17:25.381Z,18.03
2023-09-07T19:19:58.333Z,17.91
2023-09-07T19:22:32.074Z,17.81
2023-09-07T19:25:05.041Z,17.75
2023-09-07T19:27:37.161Z,17.70
2023-09-07T19:30:11.501Z,17.65
2023-09-07T19:32:43.679Z,17.54
2023-09-07T19:35:15.903Z,17.53
2023-09-07T19:37:48.475Z,17.51
2023-09-07T19:40:22.058Z,17.46
2023-09-07T19:42:54.362Z,17.41
2023-09-07T19:45:26.604Z,17.39
2023-09-07T19:47:58.973Z,17.38
2023-09-07T19:50:32.167Z,17.34
2023-09-07T19:53:04.364Z,17.31
2023-09-07T19:55:36.460Z,17.26
2023-09-07T19:58:08.720Z,17.13
2023-09-07T20:00:40.878Z,17.08
2023-09-07T20:03:13.301Z,17.04
2023-09-07T20:05:45.887Z,16.96
2023-09-07T20:08:18.089Z,16.82
2023-09-07T20:10:50.266Z,16.77
2023-09-07T20:13:22.355Z,16.75
2023-09-07T20:15:54.442Z,16.75
2023-09-07T20:18:26.752Z,16.79
2023-09-07T20:20:59.000Z,16.84
2023-09-07T20:23:33.692Z,16.89
2023-09-07T20:26:05.998Z,16.77
2023-09-07T20:28:38.290Z,16.63
2023-09-07T20:31:11.415Z,16.65
2023-09-07T20:33:44.050Z,16.64
2023-09-07T20:36:16.888Z,16.51
2023-09-07T20:38:49.144Z,16.36
2023-09-07T20:41:21.355Z,16.11
2023-09-07T20:43:53.561Z,15.95
2023-09-07T20:46:25.960Z,15.92
2023-09-07T20:48:58.250Z,15.78
2023-09-07T20:51:30.747Z,15.80
2023-09-07T20:54:04.121Z,15.83
2023-09-07T20:56:36.793Z,15.86
2023-09-07T20:59:09.021Z,15.84
2023-09-07T21:01:41.120Z,15.83
2023-09-07T21:04:13.187Z,15.75
2023-09-07T21:06:45.578Z,15.68
2023-09-07T21:09:17.950Z,15.66
2023-09-07T21:11:50.228Z,15.60
2023-09-07T21:14:22.622Z,15.61
2023-09-07T21:16:55.346Z,15.54
2023-09-07T21:19:27.643Z,15.51
2023-09-07T21:21:59.619Z,15.41
2023-09-07T21:24:31.951Z,15.48
2023-09-07T21:27:04.595Z,15.53
2023-09-07T21:29:36.916Z,15.58
2023-09-07T21:32:09.584Z,15.56
2023-09-07T21:34:41.876Z,15.53
2023-09-07T21:37:14.229Z,15.49
2023-09-07T21:39:51.240Z,15.40
2023-09-07T21:42:23.431Z,15.35
2023-09-07T21:44:55.672Z,15.28
2023-09-07T21:47:28.338Z,15.19
2023-09-07T21:50:01.011Z,15.12
2023-09-07T21:52:33.290Z,15.08
2023-09-07T21:55:05.844Z,15.03
2023-09-07T21:57:38.117Z,15.04
2023-09-07T22:00:13.416Z,15.10
2023-09-07T22:02:46.082Z,15.13
2023-09-07T22:05:18.405Z,14.94
2023-09-07T22:07:50.983Z,14.83
2023-09-07T22:10:23.356Z,14.78
2023-09-07T22:13:00.175Z,14.75
2023-09-07T22:15:32.644Z,14.83
2023-09-07T22:18:05.352Z,14.91
2023-09-07T22:20:37.883Z,14.94
2023-09-07T22:23:10.050Z,14.95
2023-09-07T22:25:42.305Z,14.93
2023-09-07T22:28:14.631Z,14.94
2023-09-07T22:30:46.903Z,14.92
2023-09-07T22:33:19.662Z,14.84
2023-09-07T22:35:51.832Z,14.81
2023-09-07T22:38:24.656Z,14.78
2023-09-07T22:41:00.012Z,14.70
2023-09-07T22:43:32.051Z,14.59
2023-09-07T22:46:04.042Z,14.44
2023-09-07T22:48:36.839Z,14.36
2023-09-07T22:51:09.677Z,14.22
2023-09-07T22:53:42.006Z,14.15
2023-09-07T22:56:14.340Z,14.17
2023-09-07T22:58:46.588Z,14.19
2023-09-07T23:01:19.043Z,14.16
2023-09-07T23:03:51.634Z,14.06
2023-09-07T23:06:24.167Z,14.00
2023-09-07T23:08:56.516Z,13.92
2023-09-07T23:11:28.734Z,13.80
2023-09-07T23:14:01.096Z,13.75
2023-09-07T23:16:37.576Z,13.73
2023-09-07T23:19:09.976Z,13.75
2023-09-07T23:21:42.415Z,13.69
2023-09-07T23:24:15.067Z,13.66
2023-09-07T23:26:47.501Z,13.65
2023-09-07T23:29:20.121Z,13.61
2023-09-07T23:31:52.787Z,13.60
2023-09-07T23:34:25.139Z,13.64
2023-09-07T23:36:58.813Z,13.60
2023-09-07T23:39:31.181Z,13.61
2023-09-07T23:42:03.383Z,13.60
2023-09-07T23:44:35.631Z,13.59
2023-09-07T23:47:08.159Z,13.56
2023-09-07T23:49:40.280Z,13.52
2023-09-07T23:52:12.381Z,13.50
2023-09-07T23:54:44.815Z,13.43
2023-09-07T23:57:16.891Z,13.41
2023-09-07T23:59:48.940Z,13.35
